sensor_id;sensor_type;location;lat;lon;timestamp;P1;durP1;ratioP1;P2;durP2;ratioP2
19341;SDS011;9807;48.258;12.690;2022-07-29T00:02:12;4.47;;;4.07;;
19341;SDS011;9807;48.258;12.690;2022-07-29T00:04:37;4.80;;;4.30;;
19341;SDS011;9807;48.258;12.690;2022-07-29T00:07:03;6.60;;;4.57;;
19341;SDS011;9807;48.258;12.690;2022-07-29T00:09:30;6.33;;;4.33;;
19341;SDS011;9807;48.258;12.690;2022-07-29T00:11:56;4.53;;;4.13;;
19341;SDS011;9807;48.258;12.690;2022-07-29T00:14:24;5.13;;;4.23;;
19341;SDS011;9807;48.258;12.690;2022-07-29T00:16:50;7.20;;;4.33;;
19341;SDS011;9807;48.258;12.690;2022-07-29T00:19:16;6.77;;;3.77;;
19341;SDS011;9807;48.258;12.690;2022-07-29T00:21:42;5.23;;;3.80;;
19341;SDS011;9807;48.258;12.690;2022-07-29T00:24:07;6.67;;;3.77;;
19341;SDS011;9807;48.258;12.690;2022-07-29T00:26:33;5.83;;;3.50;;
19341;SDS011;9807;48.258;12.690;2022-07-29T00:28:59;3.90;;;3.50;;
19341;SDS011;9807;48.258;12.690;2022-07-29T00:31:29;3.53;;;3.07;;
19341;SDS011;9807;48.258;12.690;2022-07-29T00:33:55;4.73;;;3.43;;
19341;SDS011;9807;48.258;12.690;2022-07-29T00:36:21;3.70;;;3.23;;
19341;SDS011;9807;48.258;12.690;2022-07-29T00:38:48;4.33;;;3.27;;
19341;SDS011;9807;48.258;12.690;2022-07-29T00:41:14;3.97;;;3.20;;
19341;SDS011;9807;48.258;12.690;2022-07-29T00:43:41;3.30;;;3.00;;
19341;SDS011;9807;48.258;12.690;2022-07-29T00:46:10;3.60;;;2.97;;
19341;SDS011;9807;48.258;12.690;2022-07-29T00:48:36;3.57;;;3.27;;
19341;SDS011;9807;48.258;12.690;2022-07-29T00:51:03;3.27;;;2.90;;
19341;SDS011;9807;48.258;12.690;2022-07-29T00:53:37;3.30;;;3.00;;
19341;SDS011;9807;48.258;12.690;2022-07-29T00:56:09;3.80;;;3.50;;
19341;SDS011;9807;48.258;12.690;2022-07-29T00:58:35;4.63;;;2.87;;
19341;SDS011;9807;48.258;12.690;2022-07-29T01:01:01;3.67;;;3.37;;
19341;SDS011;9807;48.258;12.690;2022-07-29T01:03:34;3.90;;;3.00;;
19341;SDS011;9807;48.258;12.690;2022-07-29T01:06:00;3.47;;;3.07;;
19341;SDS011;9807;48.258;12.690;2022-07-29T01:08:25;2.80;;;2.60;;
19341;SDS011;9807;48.258;12.690;2022-07-29T01:10:52;3.50;;;3.20;;
19341;SDS011;9807;48.258;12.690;2022-07-29T01:13:19;4.13;;;3.10;;
19341;SDS011;9807;48.258;12.690;2022-07-29T01:15:46;4.57;;;2.80;;
19341;SDS011;9807;48.258;12.690;2022-07-29T01:18:18;5.20;;;2.80;;
19341;SDS011;9807;48.258;12.690;2022-07-29T01:29:33;5.67;;;2.80;;
19341;SDS011;9807;48.258;12.690;2022-07-29T01:32:18;5.13;;;2.77;;
19341;SDS011;9807;48.258;12.690;2022-07-29T01:34:48;3.93;;;2.70;;
19341;SDS011;9807;48.258;12.690;2022-07-29T01:37:19;3.90;;;2.80;;
19341;SDS011;9807;48.258;12.690;2022-07-29T01:39:49;3.57;;;2.67;;
19341;SDS011;9807;48.258;12.690;2022-07-29T01:47:25;6.50;;;3.00;;
19341;SDS011;9807;48.258;12.690;2022-07-29T01:50:04;2.60;;;2.40;;
19341;SDS011;9807;48.258;12.690;2022-07-29T01:52:34;3.57;;;2.80;;
19341;SDS011;9807;48.258;12.690;2022-07-29T01:55:07;5.33;;;3.43;;
19341;SDS011;9807;48.258;12.690;2022-07-29T01:57:38;3.80;;;3.50;;
19341;SDS011;9807;48.258;12.690;2022-07-29T02:00:07;5.17;;;4.00;;
19341;SDS011;9807;48.258;12.690;2022-07-29T02:02:34;4.40;;;3.47;;
19341;SDS011;9807;48.258;12.690;2022-07-29T02:05:02;7.93;;;3.47;;
19341;SDS011;9807;48.258;12.690;2022-07-29T02:07:30;4.27;;;3.43;;
19341;SDS011;9807;48.258;12.690;2022-07-29T02:09:58;5.10;;;3.10;;
19341;SDS011;9807;48.258;12.690;2022-07-29T02:12:26;5.83;;;3.57;;
19341;SDS011;9807;48.258;12.690;2022-07-29T02:14:54;4.80;;;3.80;;
19341;SDS011;9807;48.258;12.690;2022-07-29T02:17:29;3.70;;;3.37;;
19341;SDS011;9807;48.258;12.690;2022-07-29T02:20:00;4.13;;;3.47;;
19341;SDS011;9807;48.258;12.690;2022-07-29T02:22:29;5.53;;;3.00;;
19341;SDS011;9807;48.258;12.690;2022-07-29T02:24:57;3.87;;;3.20;;
19341;SDS011;9807;48.258;12.690;2022-07-29T02:27:23;4.53;;;3.30;;
19341;SDS011;9807;48.258;12.690;2022-07-29T02:29:52;5.37;;;3.60;;
19341;SDS011;9807;48.258;12.690;2022-07-29T02:32:19;4.77;;;4.00;;
19341;SDS011;9807;48.258;12.690;2022-07-29T02:34:47;5.80;;;4.00;;
19341;SDS011;9807;48.258;12.690;2022-07-29T02:37:14;7.60;;;3.60;;
19341;SDS011;9807;48.258;12.690;2022-07-29T02:39:43;5.27;;;3.70;;
19341;SDS011;9807;48.258;12.690;2022-07-29T02:42:11;6.33;;;3.63;;
19341;SDS011;9807;48.258;12.690;2022-07-29T02:44:39;5.37;;;3.30;;
19341;SDS011;9807;48.258;12.690;2022-07-29T02:55:26;5.47;;;3.00;;
19341;SDS011;9807;48.258;12.690;2022-07-29T02:58:03;3.63;;;2.70;;
19341;SDS011;9807;48.258;12.690;2022-07-29T03:00:53;4.50;;;2.80;;
19341;SDS011;9807;48.258;12.690;2022-07-29T03:03:22;6.23;;;3.10;;
19341;SDS011;9807;48.258;12.690;2022-07-29T03:05:54;3.20;;;2.90;;
19341;SDS011;9807;48.258;12.690;2022-07-29T03:08:21;3.60;;;3.00;;
19341;SDS011;9807;48.258;12.690;2022-07-29T03:10:48;3.50;;;3.20;;
19341;SDS011;9807;48.258;12.690;2022-07-29T03:13:15;3.13;;;2.83;;
19341;SDS011;9807;48.258;12.690;2022-07-29T03:15:44;2.60;;;2.40;;
19341;SDS011;9807;48.258;12.690;2022-07-29T03:18:11;3.80;;;2.80;;
19341;SDS011;9807;48.258;12.690;2022-07-29T03:20:38;3.83;;;2.80;;
19341;SDS011;9807;48.258;12.690;2022-07-29T03:23:04;2.40;;;2.20;;
19341;SDS011;9807;48.258;12.690;2022-07-29T03:25:30;3.37;;;2.50;;
19341;SDS011;9807;48.258;12.690;2022-07-29T03:27:56;3.40;;;2.30;;
19341;SDS011;9807;48.258;12.690;2022-07-29T03:30:22;2.30;;;2.10;;
19341;SDS011;9807;48.258;12.690;2022-07-29T03:32:49;2.27;;;2.03;;
19341;SDS011;9807;48.258;12.690;2022-07-29T03:35:15;2.63;;;2.00;;
19341;SDS011;9807;48.258;12.690;2022-07-29T03:37:47;2.70;;;2.50;;
19341;SDS011;9807;48.258;12.690;2022-07-29T03:40:17;3.43;;;2.30;;
19341;SDS011;9807;48.258;12.690;2022-07-29T03:42:48;2.67;;;2.40;;
19341;SDS011;9807;48.258;12.690;2022-07-29T03:45:17;4.57;;;2.17;;
19341;SDS011;9807;48.258;12.690;2022-07-29T03:47:49;2.77;;;2.10;;
19341;SDS011;9807;48.258;12.690;2022-07-29T03:50:18;2.50;;;2.30;;
19341;SDS011;9807;48.258;12.690;2022-07-29T03:52:45;2.07;;;1.90;;
19341;SDS011;9807;48.258;12.690;2022-07-29T03:55:12;2.47;;;2.20;;
19341;SDS011;9807;48.258;12.690;2022-07-29T03:57:39;2.97;;;2.00;;
19341;SDS011;9807;48.258;12.690;2022-07-29T04:00:07;2.20;;;2.00;;
19341;SDS011;9807;48.258;12.690;2022-07-29T04:02:33;2.70;;;2.27;;
19341;SDS011;9807;48.258;12.690;2022-07-29T04:05:00;2.40;;;2.20;;
19341;SDS011;9807;48.258;12.690;2022-07-29T04:07:30;2.37;;;2.17;;
19341;SDS011;9807;48.258;12.690;2022-07-29T04:09:55;2.33;;;2.00;;
19341;SDS011;9807;48.258;12.690;2022-07-29T04:12:21;2.40;;;2.20;;
19341;SDS011;9807;48.258;12.690;2022-07-29T04:14:47;2.50;;;2.30;;
19341;SDS011;9807;48.258;12.690;2022-07-29T04:17:13;2.20;;;2.00;;
19341;SDS011;9807;48.258;12.690;2022-07-29T04:19:39;1.80;;;1.67;;
19341;SDS011;9807;48.258;12.690;2022-07-29T04:22:05;2.30;;;2.10;;
19341;SDS011;9807;48.258;12.690;2022-07-29T04:24:30;2.73;;;2.40;;
19341;SDS011;9807;48.258;12.690;2022-07-29T04:26:56;3.13;;;2.20;;
19341;SDS011;9807;48.258;12.690;2022-07-29T04:29:22;4.33;;;2.20;;
19341;SDS011;9807;48.258;12.690;2022-07-29T04:31:48;3.03;;;2.20;;
19341;SDS011;9807;48.258;12.690;2022-07-29T04:34:14;3.47;;;2.63;;
19341;SDS011;9807;48.258;12.690;2022-07-29T04:36:40;2.93;;;2.50;;
19341;SDS011;9807;48.258;12.690;2022-07-29T04:39:06;2.30;;;2.10;;
19341;SDS011;9807;48.258;12.690;2022-07-29T04:41:31;2.47;;;2.20;;
19341;SDS011;9807;48.258;12.690;2022-07-29T04:43:57;2.10;;;1.97;;
19341;SDS011;9807;48.258;12.690;2022-07-29T04:46:25;2.37;;;2.17;;
19341;SDS011;9807;48.258;12.690;2022-07-29T04:48:51;1.80;;;1.70;;
19341;SDS011;9807;48.258;12.690;2022-07-29T04:51:20;2.30;;;2.00;;
19341;SDS011;9807;48.258;12.690;2022-07-29T04:53:46;2.43;;;2.13;;
19341;SDS011;9807;48.258;12.690;2022-07-29T04:56:24;2.40;;;2.17;;
19341;SDS011;9807;48.258;12.690;2022-07-29T04:58:50;3.43;;;2.70;;
19341;SDS011;9807;48.258;12.690;2022-07-29T05:01:19;5.20;;;2.50;;
19341;SDS011;9807;48.258;12.690;2022-07-29T05:03:45;2.50;;;2.30;;
19341;SDS011;9807;48.258;12.690;2022-07-29T05:06:20;4.40;;;3.17;;
19341;SDS011;9807;48.258;12.690;2022-07-29T05:08:45;3.50;;;3.20;;
19341;SDS011;9807;48.258;12.690;2022-07-29T05:11:15;3.80;;;2.83;;
19341;SDS011;9807;48.258;12.690;2022-07-29T05:13:41;4.60;;;3.00;;
19341;SDS011;9807;48.258;12.690;2022-07-29T05:16:13;6.07;;;2.90;;
19341;SDS011;9807;48.258;12.690;2022-07-29T05:18:42;3.47;;;2.47;;
19341;SDS011;9807;48.258;12.690;2022-07-29T05:21:17;5.80;;;2.43;;
19341;SDS011;9807;48.258;12.690;2022-07-29T05:23:42;4.00;;;2.90;;
19341;SDS011;9807;48.258;12.690;2022-07-29T05:26:19;6.10;;;3.07;;
19341;SDS011;9807;48.258;12.690;2022-07-29T05:28:47;2.23;;;1.90;;
19341;SDS011;9807;48.258;12.690;2022-07-29T05:31:19;4.60;;;3.03;;
19341;SDS011;9807;48.258;12.690;2022-07-29T05:33:48;3.20;;;2.17;;
19341;SDS011;9807;48.258;12.690;2022-07-29T05:36:21;5.67;;;3.00;;
19341;SDS011;9807;48.258;12.690;2022-07-29T05:38:47;5.17;;;2.97;;
19341;SDS011;9807;48.258;12.690;2022-07-29T05:41:18;4.33;;;2.80;;
19341;SDS011;9807;48.258;12.690;2022-07-29T05:43:44;5.97;;;3.17;;
19341;SDS011;9807;48.258;12.690;2022-07-29T05:46:17;2.40;;;2.20;;
19341;SDS011;9807;48.258;12.690;2022-07-29T05:48:43;4.30;;;2.70;;
19341;SDS011;9807;48.258;12.690;2022-07-29T05:51:24;3.67;;;2.63;;
19341;SDS011;9807;48.258;12.690;2022-07-29T05:53:50;3.20;;;2.57;;
19341;SDS011;9807;48.258;12.690;2022-07-29T05:56:25;4.33;;;2.67;;
19341;SDS011;9807;48.258;12.690;2022-07-29T05:58:51;3.40;;;2.70;;
19341;SDS011;9807;48.258;12.690;2022-07-29T06:01:17;3.77;;;3.17;;
19341;SDS011;9807;48.258;12.690;2022-07-29T06:03:43;7.47;;;2.83;;
19341;SDS011;9807;48.258;12.690;2022-07-29T06:06:20;2.30;;;2.10;;
19341;SDS011;9807;48.258;12.690;2022-07-29T06:08:46;6.10;;;2.80;;
19341;SDS011;9807;48.258;12.690;2022-07-29T06:11:23;5.77;;;3.20;;
19341;SDS011;9807;48.258;12.690;2022-07-29T06:13:48;3.20;;;2.40;;
19341;SDS011;9807;48.258;12.690;2022-07-29T06:16:20;8.10;;;2.70;;
19341;SDS011;9807;48.258;12.690;2022-07-29T06:18:46;4.63;;;2.63;;
19341;SDS011;9807;48.258;12.690;2022-07-29T06:21:18;2.77;;;2.30;;
19341;SDS011;9807;48.258;12.690;2022-07-29T06:23:43;4.47;;;2.97;;
19341;SDS011;9807;48.258;12.690;2022-07-29T06:26:19;8.03;;;3.07;;
19341;SDS011;9807;48.258;12.690;2022-07-29T06:28:45;6.33;;;3.00;;
19341;SDS011;9807;48.258;12.690;2022-07-29T06:31:17;5.57;;;2.90;;
19341;SDS011;9807;48.258;12.690;2022-07-29T06:33:42;14.00;;;3.60;;
19341;SDS011;9807;48.258;12.690;2022-07-29T06:36:26;8.97;;;3.87;;
19341;SDS011;9807;48.258;12.690;2022-07-29T06:38:52;15.33;;;3.70;;
19341;SDS011;9807;48.258;12.690;2022-07-29T06:41:18;8.53;;;3.40;;
19341;SDS011;9807;48.258;12.690;2022-07-29T06:43:45;6.30;;;2.90;;
19341;SDS011;9807;48.258;12.690;2022-07-29T06:46:19;10.20;;;3.30;;
19341;SDS011;9807;48.258;12.690;2022-07-29T06:48:46;12.27;;;3.50;;
19341;SDS011;9807;48.258;12.690;2022-07-29T06:51:19;5.37;;;3.13;;
19341;SDS011;9807;48.258;12.690;2022-07-29T06:53:45;7.80;;;3.07;;
19341;SDS011;9807;48.258;12.690;2022-07-29T06:56:21;7.93;;;2.73;;
19341;SDS011;9807;48.258;12.690;2022-07-29T06:58:49;3.93;;;3.00;;
19341;SDS011;9807;48.258;12.690;2022-07-29T07:01:15;10.07;;;2.77;;
19341;SDS011;9807;48.258;12.690;2022-07-29T07:03:41;5.50;;;2.90;;
19341;SDS011;9807;48.258;12.690;2022-07-29T07:06:22;5.53;;;2.70;;
19341;SDS011;9807;48.258;12.690;2022-07-29T07:08:48;3.37;;;2.50;;
19341;SDS011;9807;48.258;12.690;2022-07-29T07:11:27;7.30;;;2.70;;
19341;SDS011;9807;48.258;12.690;2022-07-29T07:13:53;10.30;;;2.87;;
19341;SDS011;9807;48.258;12.690;2022-07-29T07:16:19;4.67;;;2.83;;
19341;SDS011;9807;48.258;12.690;2022-07-29T07:18:45;4.80;;;2.67;;
19341;SDS011;9807;48.258;12.690;2022-07-29T07:21:14;4.07;;;2.67;;
19341;SDS011;9807;48.258;12.690;2022-07-29T07:23:40;7.77;;;3.33;;
19341;SDS011;9807;48.258;12.690;2022-07-29T07:26:05;4.57;;;2.83;;
19341;SDS011;9807;48.258;12.690;2022-07-29T07:28:31;8.20;;;2.50;;
19341;SDS011;9807;48.258;12.690;2022-07-29T07:30:57;10.50;;;2.63;;
19341;SDS011;9807;48.258;12.690;2022-07-29T07:33:22;11.23;;;3.20;;
19341;SDS011;9807;48.258;12.690;2022-07-29T07:35:48;5.17;;;2.60;;
19341;SDS011;9807;48.258;12.690;2022-07-29T07:38:14;10.00;;;2.63;;
19341;SDS011;9807;48.258;12.690;2022-07-29T07:40:40;3.33;;;2.50;;
19341;SDS011;9807;48.258;12.690;2022-07-29T07:43:06;3.23;;;2.40;;
19341;SDS011;9807;48.258;12.690;2022-07-29T07:45:31;10.77;;;3.10;;
19341;SDS011;9807;48.258;12.690;2022-07-29T07:47:57;7.03;;;2.80;;
19341;SDS011;9807;48.258;12.690;2022-07-29T07:50:23;3.73;;;2.57;;
19341;SDS011;9807;48.258;12.690;2022-07-29T07:52:53;5.20;;;2.70;;
19341;SDS011;9807;48.258;12.690;2022-07-29T07:55:22;3.70;;;2.23;;
19341;SDS011;9807;48.258;12.690;2022-07-29T07:57:48;3.37;;;2.27;;
19341;SDS011;9807;48.258;12.690;2022-07-29T08:00:15;5.17;;;2.40;;
19341;SDS011;9807;48.258;12.690;2022-07-29T08:02:44;4.47;;;2.57;;
19341;SDS011;9807;48.258;12.690;2022-07-29T08:05:10;5.07;;;2.50;;
19341;SDS011;9807;48.258;12.690;2022-07-29T08:07:41;6.77;;;2.40;;
19341;SDS011;9807;48.258;12.690;2022-07-29T08:10:06;4.73;;;2.20;;
19341;SDS011;9807;48.258;12.690;2022-07-29T08:12:32;6.47;;;2.63;;
19341;SDS011;9807;48.258;12.690;2022-07-29T08:15:01;5.23;;;2.23;;
19341;SDS011;9807;48.258;12.690;2022-07-29T08:17:32;3.60;;;2.20;;
19341;SDS011;9807;48.258;12.690;2022-07-29T08:19:58;2.67;;;2.47;;
19341;SDS011;9807;48.258;12.690;2022-07-29T08:22:24;11.77;;;3.10;;
19341;SDS011;9807;48.258;12.690;2022-07-29T08:24:50;2.93;;;2.17;;
19341;SDS011;9807;48.258;12.690;2022-07-29T08:27:20;4.87;;;2.97;;
19341;SDS011;9807;48.258;12.690;2022-07-29T08:29:46;2.50;;;2.30;;
19341;SDS011;9807;48.258;12.690;2022-07-29T08:32:14;3.57;;;2.47;;
19341;SDS011;9807;48.258;12.690;2022-07-29T08:34:40;3.23;;;2.30;;
19341;SDS011;9807;48.258;12.690;2022-07-29T08:37:06;3.93;;;2.50;;
19341;SDS011;9807;48.258;12.690;2022-07-29T08:39:31;3.90;;;2.40;;
19341;SDS011;9807;48.258;12.690;2022-07-29T08:41:57;4.03;;;2.60;;
19341;SDS011;9807;48.258;12.690;2022-07-29T08:44:23;4.40;;;2.57;;
19341;SDS011;9807;48.258;12.690;2022-07-29T08:46:50;5.07;;;2.30;;
19341;SDS011;9807;48.258;12.690;2022-07-29T08:49:16;3.50;;;1.87;;
19341;SDS011;9807;48.258;12.690;2022-07-29T08:51:46;4.60;;;2.30;;
19341;SDS011;9807;48.258;12.690;2022-07-29T08:54:16;3.03;;;2.10;;
19341;SDS011;9807;48.258;12.690;2022-07-29T08:56:43;2.40;;;2.20;;
19341;SDS011;9807;48.258;12.690;2022-07-29T08:59:10;4.30;;;2.30;;
19341;SDS011;9807;48.258;12.690;2022-07-29T09:01:37;4.33;;;2.20;;
19341;SDS011;9807;48.258;12.690;2022-07-29T09:04:06;2.40;;;1.90;;
19341;SDS011;9807;48.258;12.690;2022-07-29T09:06:36;9.60;;;2.37;;
19341;SDS011;9807;48.258;12.690;2022-07-29T09:09:05;8.40;;;2.30;;
19341;SDS011;9807;48.258;12.690;2022-07-29T09:11:33;4.03;;;2.40;;
19341;SDS011;9807;48.258;12.690;2022-07-29T09:13:59;3.60;;;2.50;;
19341;SDS011;9807;48.258;12.690;2022-07-29T09:16:25;9.53;;;2.80;;
19341;SDS011;9807;48.258;12.690;2022-07-29T09:18:51;2.60;;;2.00;;
19341;SDS011;9807;48.258;12.690;2022-07-29T09:21:19;3.33;;;2.27;;
19341;SDS011;9807;48.258;12.690;2022-07-29T09:26:41;5.13;;;2.23;;
19341;SDS011;9807;48.258;12.690;2022-07-29T09:29:15;5.60;;;2.30;;
19341;SDS011;9807;48.258;12.690;2022-07-29T09:31:45;2.97;;;2.50;;
19341;SDS011;9807;48.258;12.690;2022-07-29T09:34:13;6.03;;;2.40;;
19341;SDS011;9807;48.258;12.690;2022-07-29T09:39:07;2.80;;;2.23;;
19341;SDS011;9807;48.258;12.690;2022-07-29T09:41:49;4.93;;;2.63;;
19341;SDS011;9807;48.258;12.690;2022-07-29T09:44:20;5.47;;;2.43;;
19341;SDS011;9807;48.258;12.690;2022-07-29T09:46:56;3.23;;;2.60;;
19341;SDS011;9807;48.258;12.690;2022-07-29T09:49:22;5.37;;;2.50;;
19341;SDS011;9807;48.258;12.690;2022-07-29T09:51:58;5.23;;;2.60;;
19341;SDS011;9807;48.258;12.690;2022-07-29T09:54:32;4.60;;;2.37;;
19341;SDS011;9807;48.258;12.690;2022-07-29T09:57:04;5.47;;;2.47;;
19341;SDS011;9807;48.258;12.690;2022-07-29T09:59:32;6.70;;;2.20;;
19341;SDS011;9807;48.258;12.690;2022-07-29T10:01:58;3.73;;;2.53;;
19341;SDS011;9807;48.258;12.690;2022-07-29T10:04:35;3.10;;;2.00;;
19341;SDS011;9807;48.258;12.690;2022-07-29T10:07:08;8.17;;;2.37;;
19341;SDS011;9807;48.258;12.690;2022-07-29T10:09:34;3.00;;;2.23;;
19341;SDS011;9807;48.258;12.690;2022-07-29T10:12:10;3.23;;;2.20;;
19341;SDS011;9807;48.258;12.690;2022-07-29T10:14:40;2.87;;;2.37;;
19341;SDS011;9807;48.258;12.690;2022-07-29T10:17:07;2.73;;;2.00;;
19341;SDS011;9807;48.258;12.690;2022-07-29T10:19:34;3.03;;;2.30;;
19341;SDS011;9807;48.258;12.690;2022-07-29T10:22:03;3.53;;;2.10;;
19341;SDS011;9807;48.258;12.690;2022-07-29T10:24:30;5.23;;;3.07;;
19341;SDS011;9807;48.258;12.690;2022-07-29T10:26:58;4.87;;;2.50;;
19341;SDS011;9807;48.258;12.690;2022-07-29T10:29:25;7.33;;;2.40;;
19341;SDS011;9807;48.258;12.690;2022-07-29T10:38:15;3.67;;;2.20;;
19341;SDS011;9807;48.258;12.690;2022-07-29T10:43:42;4.97;;;2.20;;
19341;SDS011;9807;48.258;12.690;2022-07-29T10:49:15;2.17;;;1.93;;
19341;SDS011;9807;48.258;12.690;2022-07-29T10:52:03;3.77;;;2.10;;
19341;SDS011;9807;48.258;12.690;2022-07-29T11:07:30;2.00;;;1.80;;
19341;SDS011;9807;48.258;12.690;2022-07-29T11:15:09;3.73;;;1.80;;
19341;SDS011;9807;48.258;12.690;2022-07-29T11:31:46;2.40;;;1.80;;
19341;SDS011;9807;48.258;12.690;2022-07-29T11:47:38;1.90;;;1.80;;
19341;SDS011;9807;48.258;12.690;2022-07-29T11:50:07;3.40;;;2.00;;
19341;SDS011;9807;48.258;12.690;2022-07-29T11:52:39;2.50;;;1.87;;
19341;SDS011;9807;48.258;12.690;2022-07-29T11:55:19;5.53;;;2.00;;
19341;SDS011;9807;48.258;12.690;2022-07-29T12:00:25;2.47;;;1.90;;
19341;SDS011;9807;48.258;12.690;2022-07-29T12:02:52;4.53;;;2.10;;
19341;SDS011;9807;48.258;12.690;2022-07-29T12:05:19;2.10;;;1.90;;
19341;SDS011;9807;48.258;12.690;2022-07-29T12:07:46;3.47;;;1.90;;
19341;SDS011;9807;48.258;12.690;2022-07-29T12:10:12;2.13;;;1.90;;
19341;SDS011;9807;48.258;12.690;2022-07-29T12:12:38;3.37;;;2.40;;
19341;SDS011;9807;48.258;12.690;2022-07-29T12:15:14;5.07;;;2.10;;
19341;SDS011;9807;48.258;12.690;2022-07-29T12:17:45;4.80;;;2.07;;
19341;SDS011;9807;48.258;12.690;2022-07-29T12:20:12;3.27;;;2.47;;
19341;SDS011;9807;48.258;12.690;2022-07-29T12:22:42;6.97;;;2.40;;
19341;SDS011;9807;48.258;12.690;2022-07-29T12:25:10;2.63;;;2.13;;
19341;SDS011;9807;48.258;12.690;2022-07-29T12:27:39;2.30;;;2.10;;
19341;SDS011;9807;48.258;12.690;2022-07-29T12:30:06;3.03;;;2.20;;
19341;SDS011;9807;48.258;12.690;2022-07-29T12:35:10;4.93;;;2.40;;
19341;SDS011;9807;48.258;12.690;2022-07-29T12:37:37;2.20;;;2.00;;
19341;SDS011;9807;48.258;12.690;2022-07-29T12:40:06;2.23;;;1.97;;
19341;SDS011;9807;48.258;12.690;2022-07-29T12:42:33;2.90;;;2.10;;
19341;SDS011;9807;48.258;12.690;2022-07-29T12:44:59;3.70;;;2.00;;
19341;SDS011;9807;48.258;12.690;2022-07-29T12:47:26;3.07;;;2.20;;
19341;SDS011;9807;48.258;12.690;2022-07-29T12:50:08;2.37;;;2.17;;
19341;SDS011;9807;48.258;12.690;2022-07-29T12:52:37;6.03;;;2.30;;
19341;SDS011;9807;48.258;12.690;2022-07-29T12:55:03;3.70;;;2.00;;
19341;SDS011;9807;48.258;12.690;2022-07-29T12:57:32;6.17;;;2.40;;
19341;SDS011;9807;48.258;12.690;2022-07-29T13:00:11;3.27;;;2.20;;
19341;SDS011;9807;48.258;12.690;2022-07-29T13:02:38;4.57;;;2.00;;
19341;SDS011;9807;48.258;12.690;2022-07-29T13:05:06;5.00;;;2.30;;
19341;SDS011;9807;48.258;12.690;2022-07-29T13:07:36;6.53;;;2.37;;
19341;SDS011;9807;48.258;12.690;2022-07-29T13:15:43;4.87;;;2.30;;
19341;SDS011;9807;48.258;12.690;2022-07-29T13:18:28;2.90;;;2.17;;
19341;SDS011;9807;48.258;12.690;2022-07-29T13:21:09;2.60;;;2.30;;
19341;SDS011;9807;48.258;12.690;2022-07-29T13:23:37;6.17;;;2.40;;
19341;SDS011;9807;48.258;12.690;2022-07-29T13:26:06;3.73;;;2.33;;
19341;SDS011;9807;48.258;12.690;2022-07-29T13:28:33;3.80;;;2.30;;
19341;SDS011;9807;48.258;12.690;2022-07-29T13:30:59;3.33;;;2.20;;
19341;SDS011;9807;48.258;12.690;2022-07-29T13:33:25;9.83;;;2.50;;
19341;SDS011;9807;48.258;12.690;2022-07-29T13:35:51;6.43;;;2.37;;
19341;SDS011;9807;48.258;12.690;2022-07-29T13:38:17;3.00;;;2.70;;
19341;SDS011;9807;48.258;12.690;2022-07-29T13:40:43;6.00;;;2.27;;
19341;SDS011;9807;48.258;12.690;2022-07-29T13:43:09;3.00;;;2.50;;
19341;SDS011;9807;48.258;12.690;2022-07-29T13:45:35;6.20;;;2.50;;
19341;SDS011;9807;48.258;12.690;2022-07-29T13:48:01;1.90;;;1.80;;
19341;SDS011;9807;48.258;12.690;2022-07-29T13:50:27;5.73;;;2.00;;
19341;SDS011;9807;48.258;12.690;2022-07-29T13:52:53;1.50;;;1.40;;
19341;SDS011;9807;48.258;12.690;2022-07-29T13:55:19;3.37;;;1.80;;
19341;SDS011;9807;48.258;12.690;2022-07-29T13:57:45;3.23;;;1.90;;
19341;SDS011;9807;48.258;12.690;2022-07-29T14:00:11;4.17;;;2.07;;
19341;SDS011;9807;48.258;12.690;2022-07-29T14:02:43;2.20;;;1.93;;
19341;SDS011;9807;48.258;12.690;2022-07-29T14:05:12;2.43;;;1.90;;
19341;SDS011;9807;48.258;12.690;2022-07-29T14:07:38;6.30;;;2.30;;
19341;SDS011;9807;48.258;12.690;2022-07-29T14:10:04;6.83;;;2.07;;
19341;SDS011;9807;48.258;12.690;2022-07-29T14:15:19;5.77;;;2.30;;
19341;SDS011;9807;48.258;12.690;2022-07-29T14:17:45;4.40;;;2.40;;
19341;SDS011;9807;48.258;12.690;2022-07-29T14:20:13;2.50;;;2.17;;
19341;SDS011;9807;48.258;12.690;2022-07-29T14:22:40;7.20;;;2.33;;
19341;SDS011;9807;48.258;12.690;2022-07-29T14:25:07;6.83;;;2.20;;
19341;SDS011;9807;48.258;12.690;2022-07-29T14:27:36;2.50;;;2.30;;
19341;SDS011;9807;48.258;12.690;2022-07-29T14:30:05;3.93;;;2.70;;
19341;SDS011;9807;48.258;12.690;2022-07-29T14:32:31;4.77;;;2.37;;
19341;SDS011;9807;48.258;12.690;2022-07-29T14:34:57;5.67;;;2.17;;
19341;SDS011;9807;48.258;12.690;2022-07-29T14:37:23;3.10;;;2.53;;
19341;SDS011;9807;48.258;12.690;2022-07-29T14:39:49;4.00;;;2.30;;
19341;SDS011;9807;48.258;12.690;2022-07-29T14:45:08;4.20;;;2.30;;
19341;SDS011;9807;48.258;12.690;2022-07-29T14:47:47;2.90;;;2.50;;
19341;SDS011;9807;48.258;12.690;2022-07-29T14:55:06;4.30;;;2.30;;
19341;SDS011;9807;48.258;12.690;2022-07-29T14:57:34;4.73;;;2.03;;
19341;SDS011;9807;48.258;12.690;2022-07-29T14:59:59;2.67;;;2.00;;
19341;SDS011;9807;48.258;12.690;2022-07-29T15:02:25;5.43;;;2.10;;
19341;SDS011;9807;48.258;12.690;2022-07-29T15:04:51;7.97;;;2.00;;
19341;SDS011;9807;48.258;12.690;2022-07-29T15:07:17;2.77;;;2.20;;
19341;SDS011;9807;48.258;12.690;2022-07-29T15:09:43;3.77;;;2.00;;
19341;SDS011;9807;48.258;12.690;2022-07-29T15:12:10;4.97;;;1.80;;
19341;SDS011;9807;48.258;12.690;2022-07-29T15:14:36;3.00;;;2.03;;
19341;SDS011;9807;48.258;12.690;2022-07-29T15:17:02;2.10;;;2.00;;
19341;SDS011;9807;48.258;12.690;2022-07-29T15:19:28;4.10;;;2.40;;
19341;SDS011;9807;48.258;12.690;2022-07-29T15:21:54;2.60;;;1.97;;
19341;SDS011;9807;48.258;12.690;2022-07-29T15:24:19;3.20;;;2.03;;
19341;SDS011;9807;48.258;12.690;2022-07-29T15:26:45;5.80;;;2.30;;
19341;SDS011;9807;48.258;12.690;2022-07-29T15:29:12;3.33;;;2.10;;
19341;SDS011;9807;48.258;12.690;2022-07-29T15:31:38;3.23;;;2.40;;
19341;SDS011;9807;48.258;12.690;2022-07-29T15:34:04;2.40;;;2.17;;
19341;SDS011;9807;48.258;12.690;2022-07-29T15:36:30;4.93;;;2.27;;
19341;SDS011;9807;48.258;12.690;2022-07-29T15:38:56;6.30;;;2.10;;
19341;SDS011;9807;48.258;12.690;2022-07-29T15:41:22;2.97;;;2.20;;
19341;SDS011;9807;48.258;12.690;2022-07-29T15:43:47;5.50;;;2.00;;
19341;SDS011;9807;48.258;12.690;2022-07-29T15:46:14;5.10;;;2.53;;
19341;SDS011;9807;48.258;12.690;2022-07-29T15:49:00;3.33;;;2.50;;
19341;SDS011;9807;48.258;12.690;2022-07-29T15:51:27;6.57;;;2.50;;
19341;SDS011;9807;48.258;12.690;2022-07-29T15:53:53;6.63;;;2.40;;
19341;SDS011;9807;48.258;12.690;2022-07-29T15:56:19;6.53;;;2.70;;
19341;SDS011;9807;48.258;12.690;2022-07-29T15:58:45;4.63;;;2.80;;
19341;SDS011;9807;48.258;12.690;2022-07-29T16:01:11;5.60;;;2.47;;
19341;SDS011;9807;48.258;12.690;2022-07-29T16:03:37;5.43;;;2.60;;
19341;SDS011;9807;48.258;12.690;2022-07-29T16:06:06;3.77;;;2.50;;
19341;SDS011;9807;48.258;12.690;2022-07-29T16:08:32;3.90;;;2.70;;
19341;SDS011;9807;48.258;12.690;2022-07-29T16:10:57;4.10;;;2.47;;
19341;SDS011;9807;48.258;12.690;2022-07-29T16:13:23;8.80;;;2.67;;
19341;SDS011;9807;48.258;12.690;2022-07-29T16:15:49;3.13;;;2.30;;
19341;SDS011;9807;48.258;12.690;2022-07-29T16:18:14;3.40;;;2.20;;
19341;SDS011;9807;48.258;12.690;2022-07-29T16:20:40;6.50;;;2.30;;
19341;SDS011;9807;48.258;12.690;2022-07-29T16:23:06;4.30;;;2.27;;
19341;SDS011;9807;48.258;12.690;2022-07-29T16:25:34;3.20;;;2.40;;
19341;SDS011;9807;48.258;12.690;2022-07-29T16:28:03;9.30;;;3.10;;
19341;SDS011;9807;48.258;12.690;2022-07-29T16:30:30;7.97;;;2.80;;
19341;SDS011;9807;48.258;12.690;2022-07-29T16:32:55;9.10;;;2.30;;
19341;SDS011;9807;48.258;12.690;2022-07-29T16:35:22;6.60;;;2.40;;
19341;SDS011;9807;48.258;12.690;2022-07-29T16:37:48;4.20;;;2.30;;
19341;SDS011;9807;48.258;12.690;2022-07-29T16:40:13;3.77;;;2.13;;
19341;SDS011;9807;48.258;12.690;2022-07-29T16:42:39;7.67;;;2.20;;